createdAt,value
2023-03-01T00:00:57.529Z,0.00
2023-03-01T00:01:54.518Z,0.00
2023-03-01T00:02:54.461Z,0.00
2023-03-01T00:03:54.472Z,0.00
2023-03-01T00:04:54.459Z,0.00
2023-03-01T00:05:54.431Z,0.00
2023-03-01T00:06:54.445Z,0.00
2023-03-01T00:07:54.403Z,0.00
2023-03-01T00:08:54.421Z,0.00
2023-03-01T00:09:54.393Z,0.00
2023-03-01T00:10:54.442Z,0.00
2023-03-01T00:11:54.362Z,0.00
2023-03-01T00:12:54.386Z,0.00
2023-03-01T00:13:54.344Z,0.00
2023-03-01T00:14:54.330Z,0.00
2023-03-01T00:15:57.326Z,0.00
2023-03-01T00:16:54.398Z,0.00
2023-03-01T00:17:54.302Z,0.00
2023-03-01T00:18:54.319Z,0.00
2023-03-01T00:19:54.286Z,0.00
2023-03-01T00:20:54.280Z,0.00
2023-03-01T00:21:54.401Z,0.00
2023-03-01T00:22:54.272Z,0.00
2023-03-01T00:23:54.242Z,0.00
2023-03-01T00:24:54.253Z,0.00
2023-03-01T00:25:54.249Z,0.00
2023-03-01T00:26:54.207Z,0.00
2023-03-01T00:27:54.202Z,0.00
2023-03-01T00:28:54.357Z,0.00
2023-03-01T00:29:55.177Z,0.00
2023-03-01T00:30:57.236Z,0.00
2023-03-01T00:31:54.225Z,0.00
2023-03-01T00:32:54.213Z,0.00
2023-03-01T00:33:54.159Z,0.00
2023-03-01T00:34:54.167Z,0.00
2023-03-01T00:35:54.236Z,0.00
2023-03-01T00:36:54.122Z,0.00
2023-03-01T00:37:54.146Z,0.00
2023-03-01T00:38:54.101Z,0.00
2023-03-01T00:39:54.297Z,0.00
2023-03-01T00:40:54.102Z,0.00
2023-03-01T00:41:54.085Z,0.00
2023-03-01T00:42:54.079Z,0.00
2023-03-01T00:43:54.039Z,0.00
2023-03-01T00:44:54.050Z,0.00
2023-03-01T00:45:57.048Z,0.00
2023-03-01T00:46:54.074Z,0.00
2023-03-01T00:47:53.996Z,0.00
2023-03-01T00:48:53.989Z,0.00
2023-03-01T00:49:53.989Z,0.00
2023-03-01T00:50:54.001Z,0.00
2023-03-01T00:51:53.961Z,0.00
2023-03-01T00:52:53.951Z,0.00
2023-03-01T00:53:53.942Z,0.00
2023-03-01T00:54:53.970Z,0.00
2023-03-01T00:55:53.913Z,0.00
2023-03-01T00:56:53.910Z,0.00
2023-03-01T00:57:53.928Z,0.00
2023-03-01T00:58:53.920Z,0.00
2023-03-01T00:59:53.923Z,0.00
2023-03-01T01:00:56.870Z,0.00
2023-03-01T01:01:53.908Z,0.00
2023-03-01T01:02:53.869Z,0.00
2023-03-01T01:03:53.855Z,0.00
2023-03-01T01:04:53.852Z,0.00
2023-03-01T01:05:53.816Z,0.00
2023-03-01T01:06:53.823Z,0.00
2023-03-01T01:07:53.812Z,0.00
2023-03-01T01:09:00.874Z,0.00
2023-03-01T01:09:53.784Z,0.00
2023-03-01T01:10:53.789Z,0.00
2023-03-01T01:11:53.775Z,0.00
2023-03-01T01:12:53.893Z,0.00
2023-03-01T01:13:53.733Z,0.00
2023-03-01T01:14:53.750Z,0.00
2023-03-01T01:15:56.733Z,0.00
2023-03-01T01:16:53.772Z,0.00
2023-03-01T01:17:53.682Z,0.00
2023-03-01T01:18:53.705Z,0.00
2023-03-01T01:19:53.664Z,0.00
2023-03-01T01:20:53.669Z,0.00
2023-03-01T01:21:53.672Z,0.00
2023-03-01T01:22:53.661Z,0.00
2023-03-01T01:23:53.622Z,0.00
2023-03-01T01:24:53.606Z,0.00
2023-03-01T01:25:53.636Z,0.00
2023-03-01T01:26:53.592Z,0.00
2023-03-01T01:27:53.634Z,0.00
2023-03-01T01:28:53.567Z,0.00
2023-03-01T01:29:53.559Z,0.00
2023-03-01T01:30:56.572Z,0.00
2023-03-01T01:31:53.601Z,0.00
2023-03-01T01:32:53.525Z,0.00
2023-03-01T01:33:53.524Z,0.00
2023-03-01T01:34:53.557Z,0.00
2023-03-01T01:35:53.572Z,0.00
2023-03-01T01:36:53.518Z,0.00
2023-03-01T01:37:53.481Z,0.00
2023-03-01T01:38:53.609Z,0.00
2023-03-01T01:39:53.482Z,0.00
2023-03-01T01:40:53.458Z,0.00
2023-03-01T01:41:53.446Z,0.00
2023-03-01T01:42:53.428Z,0.00
2023-03-01T01:43:53.436Z,0.00
2023-03-01T01:44:53.435Z,0.00
2023-03-01T01:45:56.384Z,0.00
2023-03-01T01:46:53.409Z,0.00
2023-03-01T01:47:53.393Z,0.00
2023-03-01T01:48:53.368Z,0.00
2023-03-01T01:49:53.594Z,0.00
2023-03-01T01:50:53.366Z,0.00
2023-03-01T01:51:53.361Z,0.00
2023-03-01T01:52:53.318Z,0.00
2023-03-01T01:53:53.306Z,0.00
2023-03-01T01:54:53.300Z,0.00
2023-03-01T01:55:53.307Z,0.00
2023-03-01T01:56:53.297Z,0.00
2023-03-01T01:57:53.288Z,0.00
2023-03-01T01:58:53.288Z,0.00
2023-03-01T01:59:53.278Z,0.00
2023-03-01T02:00:56.302Z,0.00
2023-03-01T02:01:53.266Z,0.00
2023-03-01T02:02:53.381Z,0.00
2023-03-01T02:03:53.242Z,0.00
2023-03-01T02:04:53.197Z,0.00
2023-03-01T02:05:55.578Z,0.00
2023-03-01T02:06:53.188Z,0.00
2023-03-01T02:07:53.166Z,0.00
2023-03-01T02:08:53.162Z,0.00
2023-03-01T02:09:53.148Z,0.00
2023-03-01T02:10:53.170Z,0.00
2023-03-01T02:11:53.181Z,0.00
2023-03-01T02:12:53.161Z,0.00
2023-03-01T02:13:53.129Z,0.00
2023-03-01T02:14:53.122Z,0.00
2023-03-01T02:15:56.139Z,0.00
2023-03-01T02:16:53.086Z,0.00
2023-03-01T02:17:53.079Z,0.00
2023-03-01T02:18:53.053Z,0.00
2023-03-01T02:19:53.070Z,0.00
2023-03-01T02:20:53.062Z,0.00
2023-03-01T02:21:53.050Z,0.00
2023-03-01T02:22:53.162Z,0.00
2023-03-01T02:23:53.034Z,0.00
2023-03-01T02:24:53.035Z,0.00
2023-03-01T02:25:52.973Z,0.00
2023-03-01T02:26:53.022Z,0.00
2023-03-01T02:27:52.968Z,0.00
2023-03-01T02:28:52.974Z,0.00
2023-03-01T02:29:52.975Z,0.00
2023-03-01T02:30:56.000Z,0.00
2023-03-01T02:31:53.009Z,0.00
2023-03-01T02:32:53.022Z,0.00
2023-03-01T02:33:52.901Z,0.00
2023-03-01T02:34:52.882Z,0.00
2023-03-01T02:35:52.976Z,0.00
2023-03-01T02:36:52.852Z,0.00
2023-03-01T02:37:52.890Z,0.00
2023-03-01T02:38:52.885Z,0.00
2023-03-01T02:39:52.865Z,0.00
2023-03-01T02:40:52.869Z,0.00
2023-03-01T02:41:52.879Z,0.00
2023-03-01T02:42:52.846Z,0.00
2023-03-01T02:43:52.986Z,0.00
2023-03-01T02:44:52.865Z,0.00
2023-03-01T02:45:55.794Z,0.00
2023-03-01T02:46:52.808Z,0.00
2023-03-01T02:47:52.741Z,0.00
2023-03-01T02:48:52.739Z,0.00
2023-03-01T02:49:52.752Z,0.00
2023-03-01T02:50:52.736Z,0.00
2023-03-01T02:51:52.942Z,0.00
2023-03-01T02:52:53.147Z,0.00
2023-03-01T02:53:52.836Z,0.00
2023-03-01T02:54:52.705Z,0.00
2023-03-01T02:55:52.691Z,0.00
2023-03-01T02:56:52.686Z,0.00
2023-03-01T02:57:52.638Z,0.00
2023-03-01T02:58:52.641Z,0.00
2023-03-01T02:59:52.644Z,0.00
2023-03-01T03:00:55.659Z,0.00
2023-03-01T03:01:52.624Z,0.00
2023-03-01T03:02:52.618Z,0.00
2023-03-01T03:03:52.766Z,0.00
2023-03-01T03:04:52.604Z,0.00
2023-03-01T03:05:52.586Z,0.00
2023-03-01T03:06:52.547Z,0.00
2023-03-01T03:07:52.581Z,0.00
2023-03-01T03:08:52.518Z,0.00
2023-03-01T03:09:52.515Z,0.00
2023-03-01T03:10:52.515Z,0.00
2023-03-01T03:11:52.498Z,0.00
2023-03-01T03:12:52.510Z,0.00
2023-03-01T03:13:52.477Z,0.00
2023-03-01T03:14:52.479Z,0.00
2023-03-01T03:15:55.497Z,0.00
2023-03-01T03:16:52.460Z,0.00
2023-03-01T03:17:52.451Z,0.00
2023-03-01T03:18:52.498Z,0.00
2023-03-01T03:19:52.427Z,0.00
2023-03-01T03:20:52.429Z,0.00
2023-03-01T03:21:52.402Z,0.00
2023-03-01T03:22:52.402Z,0.00
2023-03-01T03:23:52.398Z,0.00
2023-03-01T03:24:52.382Z,0.00
2023-03-01T03:25:52.340Z,0.00
2023-03-01T03:26:52.360Z,0.00
2023-03-01T03:27:52.321Z,0.00
2023-03-01T03:28:52.347Z,0.00
2023-03-01T03:29:53.418Z,0.00
2023-03-01T03:30:55.333Z,0.00
2023-03-01T03:31:52.474Z,0.00
2023-03-01T03:32:52.278Z,0.00
2023-03-01T03:33:52.307Z,0.00
2023-03-01T03:34:52.250Z,0.00
2023-03-01T03:35:52.301Z,0.00
2023-03-01T03:36:52.224Z,0.00
2023-03-01T03:37:52.222Z,0.00
2023-03-01T03:38:52.245Z,0.00
2023-03-01T03:39:52.209Z,0.00
2023-03-01T03:40:52.244Z,0.00
2023-03-01T03:41:52.217Z,0.00
2023-03-01T03:42:52.179Z,0.00
2023-03-01T03:43:52.181Z,0.00
2023-03-01T03:44:52.179Z,0.00
2023-03-01T03:45:55.221Z,0.00
2023-03-01T03:46:52.141Z,0.00
2023-03-01T03:47:52.151Z,0.00
2023-03-01T03:48:52.128Z,0.00
2023-03-01T03:49:52.088Z,0.00
2023-03-01T03:50:52.147Z,0.00
2023-03-01T03:51:52.098Z,0.00
2023-03-01T03:52:52.090Z,0.00
2023-03-01T03:53:52.052Z,0.00
2023-03-01T03:54:52.043Z,0.00
2023-03-01T03:55:52.038Z,0.00
2023-03-01T03:56:52.027Z,0.00
2023-03-01T03:57:52.035Z,0.00
2023-03-01T03:58:52.029Z,0.00
2023-03-01T03:59:51.984Z,0.00
2023-03-01T04:00:55.026Z,0.00
2023-03-01T04:01:52.046Z,0.00
2023-03-01T04:02:51.972Z,0.00
2023-03-01T04:03:51.944Z,0.00
2023-03-01T04:04:51.964Z,0.00
2023-03-01T04:05:51.936Z,0.00
2023-03-01T04:06:51.914Z,0.00
2023-03-01T04:07:51.903Z,0.00
2023-03-01T04:08:51.943Z,0.00
2023-03-01T04:09:51.884Z,0.00
2023-03-01T04:10:51.898Z,0.00
2023-03-01T04:11:51.862Z,0.00
2023-03-01T04:12:51.855Z,0.00
2023-03-01T04:13:51.865Z,0.00
2023-03-01T04:14:51.854Z,0.00
2023-03-01T04:15:54.848Z,0.00
2023-03-01T04:16:51.918Z,0.00
2023-03-01T04:17:51.857Z,0.00
2023-03-01T04:18:51.794Z,0.00
2023-03-01T04:19:51.800Z,0.00
2023-03-01T04:20:51.808Z,0.00
2023-03-01T04:21:51.792Z,0.00
2023-03-01T04:22:51.808Z,0.00
2023-03-01T04:23:51.736Z,0.00
2023-03-01T04:24:51.728Z,0.00
2023-03-01T04:25:51.825Z,0.00
2023-03-01T04:26:51.736Z,0.00
2023-03-01T04:27:51.731Z,0.00
2023-03-01T04:28:51.784Z,0.00
2023-03-01T04:29:51.697Z,0.00
2023-03-01T04:30:54.682Z,0.00
2023-03-01T04:31:51.796Z,0.00
2023-03-01T04:32:51.702Z,0.00
2023-03-01T04:33:51.682Z,0.00
2023-03-01T04:34:51.627Z,0.00
2023-03-01T04:35:51.729Z,0.00
2023-03-01T04:36:51.740Z,0.00
2023-03-01T04:37:51.616Z,0.00
2023-03-01T04:38:51.589Z,0.00
2023-03-01T04:39:51.573Z,0.00
2023-03-01T04:40:51.602Z,0.00
2023-03-01T04:41:51.580Z,0.00
2023-03-01T04:42:51.568Z,0.00
2023-03-01T04:43:51.569Z,0.00
2023-03-01T04:44:51.539Z,0.00
2023-03-01T04:45:54.560Z,0.00
2023-03-01T04:46:51.518Z,0.00
2023-03-01T04:47:51.520Z,0.00
2023-03-01T04:48:51.645Z,0.00
2023-03-01T04:49:51.473Z,0.00
2023-03-01T04:50:51.469Z,0.00
2023-03-01T04:51:51.442Z,0.00
2023-03-01T04:52:51.509Z,0.00
2023-03-01T04:53:51.421Z,0.00
2023-03-01T04:54:51.449Z,0.00
2023-03-01T04:55:51.402Z,0.00
2023-03-01T04:56:51.411Z,0.00
2023-03-01T04:57:51.415Z,0.00
2023-03-01T04:58:51.406Z,0.00
2023-03-01T04:59:51.360Z,0.00
2023-03-01T05:00:54.477Z,0.00
2023-03-01T05:01:51.361Z,0.00
2023-03-01T05:02:51.382Z,0.00
2023-03-01T05:03:51.336Z,0.00
2023-03-01T05:04:51.323Z,0.00
2023-03-01T05:05:51.300Z,0.00
2023-03-01T05:06:51.295Z,0.00
2023-03-01T05:07:51.276Z,0.00
2023-03-01T05:08:51.302Z,0.00
2023-03-01T05:09:52.331Z,0.00
2023-03-01T05:10:51.252Z,0.00
2023-03-01T05:11:51.286Z,0.00
2023-03-01T05:12:51.222Z,0.00
2023-03-01T05:13:51.215Z,0.00
2023-03-01T05:14:51.236Z,0.00
2023-03-01T05:15:54.217Z,0.00
2023-03-01T05:16:51.222Z,0.00
2023-03-01T05:17:51.172Z,0.00
2023-03-01T05:18:51.193Z,0.00
2023-03-01T05:19:51.172Z,0.00
2023-03-01T05:20:51.174Z,0.00
2023-03-01T05:21:51.132Z,0.00
2023-03-01T05:22:51.244Z,0.00
2023-03-01T05:23:51.117Z,0.00
2023-03-01T05:24:51.145Z,0.00
2023-03-01T05:25:51.122Z,0.00
2023-03-01T05:26:51.088Z,0.00
2023-03-01T05:27:51.073Z,0.00
2023-03-01T05:28:51.094Z,0.00
2023-03-01T05:29:51.087Z,0.00
2023-03-01T05:30:54.081Z,0.00
2023-03-01T05:31:51.063Z,0.00
2023-03-01T05:32:51.014Z,0.00
2023-03-01T05:33:51.035Z,0.00
2023-03-01T05:34:50.996Z,0.00
2023-03-01T05:35:51.030Z,0.00
2023-03-01T05:36:51.006Z,0.00
2023-03-01T05:37:51.116Z,0.00
2023-03-01T05:38:50.984Z,0.00
2023-03-01T05:39:51.070Z,0.00
2023-03-01T05:40:50.936Z,0.00
2023-03-01T05:41:50.929Z,0.00
2023-03-01T05:42:50.936Z,0.00
2023-03-01T05:43:50.890Z,1.00
2023-03-01T05:44:50.868Z,1.00
2023-03-01T05:45:53.950Z,0.00
2023-03-01T05:46:50.895Z,0.00
2023-03-01T05:47:50.869Z,0.00
2023-03-01T05:51:08.656Z,1.00
2023-03-01T05:52:08.429Z,1.00
2023-03-01T05:53:08.413Z,3.00
2023-03-01T05:54:08.437Z,2.00
2023-03-01T05:55:08.414Z,3.00
2023-03-01T05:56:08.396Z,4.00
2023-03-01T05:57:08.380Z,5.00
2023-03-01T05:58:08.370Z,5.00
2023-03-01T06:00:31.586Z,11.00
2023-03-01T06:01:42.511Z,10.00
2023-03-01T06:02:31.202Z,13.00
2023-03-01T06:03:31.186Z,18.00
2023-03-01T06:04:31.227Z,18.00
2023-03-01T06:05:31.270Z,22.00
2023-03-01T06:06:31.499Z,24.00
2023-03-01T06:07:31.175Z,27.00
2023-03-01T06:08:31.141Z,31.00
2023-03-01T06:09:31.127Z,36.00
2023-03-01T06:10:31.145Z,40.00
2023-03-01T06:11:31.136Z,49.00
2023-03-01T06:12:31.128Z,53.00
2023-03-01T06:13:34.120Z,59.00
2023-03-01T06:14:31.099Z,68.00
2023-03-01T06:15:31.137Z,65.00
2023-03-01T06:16:31.391Z,66.00
2023-03-01T06:17:31.052Z,70.00
2023-03-01T06:18:31.068Z,77.00
2023-03-01T06:19:31.100Z,80.00
2023-03-01T06:20:31.069Z,83.00
2023-03-01T06:21:31.033Z,90.00
2023-03-01T06:22:31.057Z,91.00
2023-03-01T06:23:31.022Z,96.00
2023-03-01T06:24:30.983Z,98.00
2023-03-01T06:25:31.000Z,103.00
2023-03-01T06:26:31.331Z,107.00
2023-03-01T06:27:30.971Z,116.00
2023-03-01T06:28:33.944Z,123.00
2023-03-01T06:29:30.982Z,128.00
2023-03-01T06:30:30.966Z,126.00
2023-03-01T06:31:30.966Z,125.00
2023-03-01T06:32:40.084Z,140.00
2023-03-01T06:33:30.916Z,153.00
2023-03-01T06:34:30.881Z,144.00
2023-03-01T06:35:31.095Z,159.00
2023-03-01T06:36:31.217Z,178.00
2023-03-01T06:37:30.868Z,189.00
2023-03-01T06:38:30.892Z,185.00
2023-03-01T06:39:30.836Z,192.00
2023-03-01T06:40:30.848Z,184.00
2023-03-01T06:41:30.813Z,180.00
2023-03-01T06:42:30.834Z,178.00
2023-03-01T06:43:33.913Z,196.00
2023-03-01T06:44:30.860Z,226.00
2023-03-01T06:45:30.789Z,238.00
2023-03-01T06:46:31.157Z,219.00
2023-03-01T06:47:30.785Z,212.00
2023-03-01T06:48:30.765Z,234.00
2023-03-01T06:49:30.781Z,249.00
2023-03-01T06:50:30.781Z,247.00
2023-03-01T06:51:30.731Z,238.00
2023-03-01T06:52:30.704Z,246.00
2023-03-01T06:53:30.697Z,285.00
2023-03-01T06:54:30.689Z,306.00
2023-03-01T06:55:30.688Z,309.00
2023-03-01T06:56:30.995Z,308.00
2023-03-01T06:57:30.648Z,293.00
2023-03-01T06:58:33.638Z,274.00
2023-03-01T06:59:30.654Z,270.00
2023-03-01T07:00:30.876Z,328.00
2023-03-01T07:01:30.625Z,356.00
2023-03-01T07:02:30.685Z,350.00
2023-03-01T07:03:37.760Z,369.00
2023-03-01T07:04:30.601Z,403.00
2023-03-01T07:05:30.609Z,439.00
2023-03-01T07:06:30.987Z,448.00
2023-03-01T07:07:30.595Z,404.00
2023-03-01T07:08:30.535Z,423.00
2023-03-01T07:09:30.527Z,452.00
2023-03-01T07:10:30.559Z,471.00
2023-03-01T07:11:30.533Z,456.00
2023-03-01T07:12:30.499Z,417.00
2023-03-01T07:13:33.488Z,441.00
2023-03-01T07:14:30.492Z,511.00
2023-03-01T07:15:31.454Z,542.00
2023-03-01T07:16:30.782Z,539.00
2023-03-01T07:17:30.480Z,539.00
2023-03-01T07:18:30.464Z,553.00
2023-03-01T07:19:30.458Z,519.00
2023-03-01T07:20:30.426Z,489.00
2023-03-01T07:21:30.460Z,489.00
2023-03-01T07:22:30.399Z,534.00
2023-03-01T07:23:30.427Z,571.00
2023-03-01T07:24:30.419Z,525.00
2023-03-01T07:25:30.368Z,519.00
2023-03-01T07:26:30.851Z,532.00
2023-03-01T07:27:30.353Z,597.00
2023-03-01T07:28:33.384Z,635.00
2023-03-01T07:29:30.373Z,659.00
2023-03-01T07:30:30.342Z,668.00
2023-03-01T07:31:30.338Z,653.00
2023-03-01T07:32:30.466Z,642.00
2023-03-01T07:33:30.291Z,635.00
2023-03-01T07:34:30.311Z,639.00
2023-03-01T07:35:30.308Z,661.00
2023-03-01T07:36:30.711Z,659.00
2023-03-01T07:37:30.283Z,648.00
2023-03-01T07:38:30.265Z,645.00
2023-03-01T07:39:30.282Z,669.00
2023-03-01T07:40:30.245Z,726.00
2023-03-01T07:41:30.202Z,743.00
2023-03-01T07:42:30.201Z,715.00
2023-03-01T07:43:33.226Z,693.00
2023-03-01T07:44:30.227Z,710.00
2023-03-01T07:45:30.236Z,727.00
2023-03-01T07:46:30.495Z,712.00
2023-03-01T07:47:30.154Z,732.00
2023-03-01T07:48:30.183Z,795.00
2023-03-01T07:49:30.152Z,854.00
2023-03-01T07:50:30.276Z,833.00
2023-03-01T07:51:30.132Z,781.00
2023-03-01T07:52:30.137Z,811.00
2023-03-01T07:53:30.115Z,859.00
2023-03-01T07:54:30.084Z,894.00
2023-03-01T07:55:30.130Z,896.00
2023-03-01T07:56:30.454Z,881.00
2023-03-01T07:57:30.083Z,879.00
2023-03-01T07:58:33.082Z,912.00
2023-03-01T07:59:30.192Z,954.00
2023-03-01T08:00:30.041Z,916.00
2023-03-01T08:01:30.053Z,897.00
2023-03-01T08:02:30.013Z,943.00
2023-03-01T08:03:30.049Z,941.00
2023-03-01T08:04:29.991Z,923.00
2023-03-01T08:05:30.025Z,936.00
2023-03-01T08:06:30.262Z,949.00
2023-03-01T08:07:29.947Z,954.00
2023-03-01T08:08:29.934Z,925.00
2023-03-01T08:09:29.934Z,952.00
2023-03-01T08:10:29.913Z,1016.00
2023-03-01T08:11:29.984Z,1011.00
2023-03-01T08:12:29.897Z,978.00
2023-03-01T08:13:32.903Z,965.00
2023-03-01T08:14:29.891Z,994.00
2023-03-01T08:15:29.860Z,1068.00
2023-03-01T08:16:30.386Z,1079.00
2023-03-01T08:17:29.848Z,1011.00
2023-03-01T08:18:29.851Z,1044.00
2023-03-01T08:19:29.823Z,1106.00
2023-03-01T08:20:29.854Z,1118.00
2023-03-01T08:21:29.828Z,1181.00
2023-03-01T08:22:29.959Z,1125.00
2023-03-01T08:23:29.810Z,1114.00
2023-03-01T08:24:29.804Z,1142.00
2023-03-01T08:25:29.790Z,1114.00
2023-03-01T08:26:30.110Z,1098.00
2023-03-01T08:27:29.741Z,1128.00
2023-03-01T08:28:32.734Z,1126.00
2023-03-01T08:29:29.766Z,1060.00
2023-03-01T08:30:29.737Z,1031.00
2023-03-01T08:31:29.830Z,1072.00
2023-03-01T08:32:29.747Z,1159.00
2023-03-01T08:33:29.871Z,1216.00
2023-03-01T08:34:29.695Z,1226.00
2023-03-01T08:35:29.663Z,1240.00
2023-03-01T08:36:30.137Z,1236.00
2023-03-01T08:37:29.667Z,1276.00
2023-03-01T08:38:29.746Z,1418.00
2023-03-01T08:39:29.689Z,1678.00
2023-03-01T08:40:29.621Z,1615.00
2023-03-01T08:41:29.724Z,1414.00
2023-03-01T08:42:29.625Z,1407.00
2023-03-01T08:43:32.600Z,1511.00
2023-03-01T08:44:29.602Z,1574.00
2023-03-01T08:45:29.713Z,1591.00
2023-03-01T08:46:29.978Z,1574.00
2023-03-01T08:47:29.575Z,1520.00
2023-03-01T08:48:29.531Z,1444.00
2023-03-01T08:49:29.548Z,1457.00
2023-03-01T08:50:29.542Z,1486.00
2023-03-01T08:51:29.528Z,1523.00
2023-03-01T08:52:29.518Z,1532.00
2023-03-01T08:53:29.480Z,1499.00
2023-03-01T08:54:29.489Z,1429.00
2023-03-01T08:55:29.498Z,1485.00
2023-03-01T08:56:29.867Z,1562.00
2023-03-01T08:57:29.465Z,1638.00
2023-03-01T08:58:32.463Z,1692.00
2023-03-01T08:59:29.489Z,1578.00
2023-03-01T09:00:29.448Z,1491.00
2023-03-01T09:01:29.606Z,1527.00
2023-03-01T09:02:29.595Z,1562.00
2023-03-01T09:03:29.410Z,1530.00
2023-03-01T09:04:29.381Z,1441.00
2023-03-01T09:05:29.366Z,1510.00
2023-03-01T09:06:29.591Z,1609.00
2023-03-01T09:07:29.413Z,1729.00
2023-03-01T09:08:29.375Z,1799.00
2023-03-01T09:09:29.350Z,1799.00
2023-03-01T09:10:29.334Z,1798.00
2023-03-01T09:11:29.290Z,1759.00
2023-03-01T09:12:29.365Z,1741.00
2023-03-01T09:13:32.312Z,1633.00
2023-03-01T09:14:29.318Z,1590.00
2023-03-01T09:15:29.285Z,1746.00
2023-03-01T09:16:29.932Z,1869.00
2023-03-01T09:17:29.269Z,1821.00
2023-03-01T09:18:29.241Z,1726.00
2023-03-01T09:19:29.224Z,1604.00
2023-03-01T09:20:29.220Z,1895.00
2023-03-01T09:21:39.497Z,2156.00
2023-03-01T09:22:29.193Z,2145.00
2023-03-01T09:23:29.245Z,2052.00
2023-03-01T09:24:29.199Z,2101.00
2023-03-01T09:25:29.182Z,2025.00
2023-03-01T09:26:29.786Z,1851.00
2023-03-01T09:27:29.166Z,1856.00
2023-03-01T09:28:32.188Z,1987.00
2023-03-01T09:29:29.160Z,2309.00
2023-03-01T09:30:29.135Z,2205.00
2023-03-01T09:31:29.102Z,2041.00
2023-03-01T09:32:29.132Z,2059.00
2023-03-01T09:33:29.112Z,2009.00
2023-03-01T09:34:29.089Z,2118.00
2023-03-01T09:35:29.220Z,2206.00
2023-03-01T09:36:29.526Z,2135.00
2023-03-01T09:37:29.042Z,1979.00
2023-03-01T09:38:29.040Z,1914.00
2023-03-01T09:39:29.136Z,1949.00
2023-03-01T09:40:29.039Z,1979.00
2023-03-01T09:41:29.117Z,1989.00
2023-03-01T09:42:28.977Z,1983.00
2023-03-01T09:43:32.007Z,1938.00
2023-03-01T09:44:29.030Z,2059.00
2023-03-01T09:45:28.968Z,2012.00
2023-03-01T09:46:29.375Z,1912.00
2023-03-01T09:47:28.969Z,1879.00
2023-03-01T09:48:28.948Z,1903.00
2023-03-01T09:49:29.024Z,1919.00
2023-03-01T09:50:28.923Z,2094.00
2023-03-01T09:51:28.902Z,2167.00
2023-03-01T09:52:28.880Z,2151.00
2023-03-01T09:53:28.881Z,2266.00
2023-03-01T09:54:28.862Z,2267.00
2023-03-01T09:55:28.862Z,2343.00
2023-03-01T09:56:29.379Z,2260.00
2023-03-01T09:57:28.854Z,2163.00
2023-03-01T09:58:31.832Z,2297.00
2023-03-01T09:59:28.854Z,2398.00
2023-03-01T10:00:28.865Z,2360.00
2023-03-01T10:01:29.148Z,2249.00
2023-03-01T10:02:28.785Z,2192.00
2023-03-01T10:03:28.826Z,2255.00
2023-03-01T10:04:28.844Z,2846.00
2023-03-01T10:05:28.784Z,2880.00
2023-03-01T10:06:35.124Z,2692.00
2023-03-01T10:07:28.728Z,2717.00
2023-03-01T10:08:28.736Z,2744.00
2023-03-01T10:09:28.744Z,2546.00
2023-03-01T10:10:28.732Z,2410.00
2023-03-01T10:11:28.752Z,2372.00
2023-03-01T10:12:28.703Z,2317.00
2023-03-01T10:13:31.680Z,2222.00
2023-03-01T10:14:28.678Z,2202.00
2023-03-01T10:15:28.711Z,2167.00
2023-03-01T10:16:28.668Z,2263.00
2023-03-01T10:17:28.658Z,2331.00
2023-03-01T10:18:28.613Z,2305.00
2023-03-01T10:19:28.636Z,2296.00
2023-03-01T10:20:28.624Z,2353.00
2023-03-01T10:21:28.641Z,2526.00
2023-03-01T10:22:28.757Z,2696.00
2023-03-01T10:23:28.601Z,2602.00
2023-03-01T10:24:28.547Z,2539.00
2023-03-01T10:25:28.567Z,2563.00
2023-03-01T10:26:28.594Z,2642.00
2023-03-01T10:27:28.564Z,2657.00
2023-03-01T10:28:31.518Z,2537.00
2023-03-01T10:29:28.546Z,2346.00
2023-03-01T10:30:28.488Z,2270.00
2023-03-01T10:31:28.968Z,2392.00
2023-03-01T10:32:28.532Z,2524.00
2023-03-01T10:33:28.520Z,2681.00
2023-03-01T10:34:28.485Z,2776.00
2023-03-01T10:35:28.521Z,2766.00
2023-03-01T10:36:28.635Z,2864.00
2023-03-01T10:37:28.547Z,2851.00
2023-03-01T10:38:28.422Z,2799.00
2023-03-01T10:39:28.436Z,2884.00
2023-03-01T10:40:28.388Z,3349.00
2023-03-01T10:41:28.427Z,3335.00
2023-03-01T10:42:28.397Z,3131.00
2023-03-01T10:43:31.379Z,2938.00
2023-03-01T10:44:28.359Z,2828.00
2023-03-01T10:45:28.338Z,2893.00
2023-03-01T10:46:28.402Z,2923.00
2023-03-01T10:47:28.328Z,2859.00
2023-03-01T10:48:28.338Z,2997.00
2023-03-01T10:49:28.331Z,3017.00
2023-03-01T10:50:28.319Z,3063.00
2023-03-01T10:51:28.520Z,3099.00
2023-03-01T10:52:28.303Z,3205.00
2023-03-01T10:53:28.269Z,3120.00
2023-03-01T10:54:28.248Z,3084.00
2023-03-01T10:55:28.251Z,3018.00
2023-03-01T10:56:28.252Z,2957.00
2023-03-01T10:57:28.237Z,2853.00
2023-03-01T10:58:31.210Z,2984.00
2023-03-01T10:59:28.222Z,2866.00
2023-03-01T11:00:28.218Z,2974.00
2023-03-01T11:01:28.283Z,3121.00
2023-03-01T11:02:28.218Z,3098.00
2023-03-01T11:03:28.186Z,3068.00
2023-03-01T11:04:28.192Z,3073.00
2023-03-01T11:05:28.139Z,2980.00
2023-03-01T11:06:28.152Z,3225.00
2023-03-01T11:07:28.147Z,3438.00
2023-03-01T11:08:28.132Z,3329.00
2023-03-01T11:09:28.102Z,3265.00
2023-03-01T11:10:28.114Z,3104.00
2023-03-01T11:11:28.433Z,3028.00
2023-03-01T11:12:28.070Z,2942.00
2023-03-01T11:13:31.057Z,2886.00
2023-03-01T11:14:28.393Z,2929.00
2023-03-01T11:15:28.048Z,2853.00
2023-03-01T11:16:28.196Z,3065.00
2023-03-01T11:17:28.054Z,2904.00
2023-03-01T11:18:45.900Z,2854.00
2023-03-01T11:19:29.005Z,2771.00
2023-03-01T11:20:29.215Z,2929.00
2023-03-01T11:21:28.074Z,3021.00
2023-03-01T11:22:27.988Z,3135.00
2023-03-01T11:23:27.978Z,3077.00
2023-03-01T11:24:28.001Z,2849.00
2023-03-01T11:25:27.940Z,2697.00
2023-03-01T11:26:27.956Z,2657.00
2023-03-01T11:27:27.914Z,2708.00
2023-03-01T11:28:30.935Z,2828.00
2023-03-01T11:29:29.697Z,2891.00
2023-03-01T11:30:28.894Z,2844.00
2023-03-01T11:31:27.950Z,2871.00
2023-03-01T11:32:28.177Z,2849.00
2023-03-01T11:33:27.903Z,2988.00
2023-03-01T11:34:27.862Z,3069.00
2023-03-01T11:35:27.867Z,3110.00
2023-03-01T11:36:27.874Z,3016.00
2023-03-01T11:37:27.815Z,2882.00
2023-03-01T11:38:27.840Z,2857.00
2023-03-01T11:39:27.820Z,2867.00
2023-03-01T11:40:27.823Z,2858.00
2023-03-01T11:41:27.796Z,2799.00
2023-03-01T11:42:27.808Z,2686.00
2023-03-01T11:43:30.778Z,2696.00
2023-03-01T11:44:27.792Z,2785.00
2023-03-01T11:45:27.762Z,2853.00
2023-03-01T11:46:27.877Z,2845.00
2023-03-01T11:47:27.823Z,2874.00
2023-03-01T11:48:30.763Z,3024.00
2023-03-01T11:49:28.722Z,3035.00
2023-03-01T11:50:27.681Z,2955.00
2023-03-01T11:51:27.714Z,2798.00
2023-03-01T11:52:27.667Z,2845.00
2023-03-01T11:53:27.709Z,3030.00
2023-03-01T11:54:27.867Z,3021.00
2023-03-01T11:55:27.740Z,2957.00
2023-03-01T11:56:27.639Z,2839.00
2023-03-01T11:57:41.123Z,2704.00
2023-03-01T11:58:31.640Z,2872.00
2023-03-01T11:59:27.608Z,2769.00
2023-03-01T12:00:27.628Z,2835.00
2023-03-01T12:01:27.575Z,2853.00
2023-03-01T12:02:27.554Z,2902.00
2023-03-01T12:03:27.552Z,2929.00
2023-03-01T12:04:27.596Z,3154.00
2023-03-01T12:05:27.565Z,3352.00
2023-03-01T12:06:27.523Z,3366.00
2023-03-01T12:07:27.506Z,3400.00
2023-03-01T12:08:27.530Z,3376.00
2023-03-01T12:09:27.507Z,3303.00
2023-03-01T12:10:27.478Z,3350.00
2023-03-01T12:11:27.496Z,3151.00
2023-03-01T12:12:27.487Z,3099.00
2023-03-01T12:13:30.448Z,3105.00
2023-03-01T12:14:27.477Z,3280.00
2023-03-01T12:15:27.429Z,3346.00
2023-03-01T12:16:38.498Z,3157.00
2023-03-01T12:17:27.432Z,2980.00
2023-03-01T12:18:27.428Z,3151.00
2023-03-01T12:19:27.379Z,3363.00
2023-03-01T12:20:27.420Z,3421.00
2023-03-01T12:21:27.366Z,3279.00
2023-03-01T12:22:27.466Z,3071.00
2023-03-01T12:23:27.371Z,2924.00
2023-03-01T12:24:27.353Z,2964.00
2023-03-01T12:25:27.340Z,2999.00
2023-03-01T12:26:27.339Z,2891.00
2023-03-01T12:27:27.301Z,2999.00
2023-03-01T12:28:30.320Z,3153.00
2023-03-01T12:29:27.289Z,3330.00
2023-03-01T12:30:27.265Z,3247.00
2023-03-01T12:31:27.361Z,3116.00
2023-03-01T12:32:27.265Z,3110.00
2023-03-01T12:33:27.392Z,3033.00
2023-03-01T12:34:27.230Z,3001.00
2023-03-01T12:35:27.244Z,2973.00
2023-03-01T12:36:27.237Z,3113.00
2023-03-01T12:37:27.330Z,3124.00
2023-03-01T12:38:27.225Z,3117.00
2023-03-01T12:39:27.214Z,3093.00
2023-03-01T12:40:27.195Z,3088.00
2023-03-01T12:41:27.191Z,2932.00
2023-03-01T12:42:27.149Z,3128.00
2023-03-01T12:43:30.162Z,3293.00
2023-03-01T12:44:27.147Z,3097.00
2023-03-01T12:45:27.290Z,2938.00
2023-03-01T12:46:27.106Z,2840.00